sensor_id;sensor_type;location;lat;lon;timestamp;temperature;humidity
13344;DHT22;6741;48.964;9.406;2023-04-01T00:02:03;8.60;99.90
13344;DHT22;6741;48.964;9.406;2023-04-01T00:04:32;8.60;99.90
13344;DHT22;6741;48.964;9.406;2023-04-01T00:06:58;8.60;99.90
13344;DHT22;6741;48.964;9.406;2023-04-01T00:09:27;8.60;99.90
13344;DHT22;6741;48.964;9.406;2023-04-01T00:11:54;8.60;99.90
13344;DHT22;6741;48.964;9.406;2023-04-01T00:14:21;8.70;99.90
13344;DHT22;6741;48.964;9.406;2023-04-01T00:16:47;8.60;99.90
13344;DHT22;6741;48.964;9.406;2023-04-01T00:19:14;8.70;99.90
13344;DHT22;6741;48.964;9.406;2023-04-01T00:21:43;8.60;99.90
13344;DHT22;6741;48.964;9.406;2023-04-01T00:24:10;8.70;99.90
13344;DHT22;6741;48.964;9.406;2023-04-01T00:26:37;8.70;99.90
13344;DHT22;6741;48.964;9.406;2023-04-01T00:29:03;8.70;99.90
13344;DHT22;6741;48.964;9.406;2023-04-01T00:31:31;8.60;99.90
13344;DHT22;6741;48.964;9.406;2023-04-01T00:33:57;8.60;99.90
13344;DHT22;6741;48.964;9.406;2023-04-01T00:36:24;8.60;99.90
13344;DHT22;6741;48.964;9.406;2023-04-01T00:38:53;8.50;99.90
13344;DHT22;6741;48.964;9.406;2023-04-01T00:41:20;8.60;99.90
13344;DHT22;6741;48.964;9.406;2023-04-01T00:43:48;8.60;99.90
13344;DHT22;6741;48.964;9.406;2023-04-01T00:46:16;8.50;99.90
13344;DHT22;6741;48.964;9.406;2023-04-01T00:48:46;8.60;99.90
13344;DHT22;6741;48.964;9.406;2023-04-01T00:51:17;8.50;99.90
13344;DHT22;6741;48.964;9.406;2023-04-01T00:53:47;8.50;99.90
13344;DHT22;6741;48.964;9.406;2023-04-01T00:56:19;8.40;99.90
13344;DHT22;6741;48.964;9.406;2023-04-01T00:58:51;8.40;99.90
13344;DHT22;6741;48.964;9.406;2023-04-01T01:01:20;8.40;99.90
13344;DHT22;6741;48.964;9.406;2023-04-01T01:03:48;8.40;99.90
13344;DHT22;6741;48.964;9.406;2023-04-01T01:06:23;8.40;99.90
13344;DHT22;6741;48.964;9.406;2023-04-01T01:09:15;8.50;99.90
13344;DHT22;6741;48.964;9.406;2023-04-01T01:11:51;8.50;99.90
13344;DHT22;6741;48.964;9.406;2023-04-01T01:14:28;8.50;99.90
13344;DHT22;6741;48.964;9.406;2023-04-01T01:17:01;8.50;99.90
13344;DHT22;6741;48.964;9.406;2023-04-01T01:19:47;8.50;99.90
13344;DHT22;6741;48.964;9.406;2023-04-01T01:22:26;8.50;99.90
13344;DHT22;6741;48.964;9.406;2023-04-01T01:25:16;8.50;99.90
13344;DHT22;6741;48.964;9.406;2023-04-01T01:27:52;8.50;99.90
13344;DHT22;6741;48.964;9.406;2023-04-01T01:30:35;8.50;99.90
13344;DHT22;6741;48.964;9.406;2023-04-01T01:33:26;8.50;99.90
13344;DHT22;6741;48.964;9.406;2023-04-01T01:35:59;8.60;99.90
13344;DHT22;6741;48.964;9.406;2023-04-01T01:38:31;8.70;99.90
13344;DHT22;6741;48.964;9.406;2023-04-01T01:41:01;8.70;99.90
13344;DHT22;6741;48.964;9.406;2023-04-01T01:43:31;8.70;99.90
13344;DHT22;6741;48.964;9.406;2023-04-01T01:46:03;8.70;99.90
13344;DHT22;6741;48.964;9.406;2023-04-01T01:48:34;8.70;99.90
13344;DHT22;6741;48.964;9.406;2023-04-01T01:51:03;8.70;99.90
13344;DHT22;6741;48.964;9.406;2023-04-01T01:53:31;8.70;99.90
13344;DHT22;6741;48.964;9.406;2023-04-01T01:55:58;8.70;99.90
13344;DHT22;6741;48.964;9.406;2023-04-01T01:58:27;8.70;99.90
13344;DHT22;6741;48.964;9.406;2023-04-01T02:00:58;8.60;99.90
13344;DHT22;6741;48.964;9.406;2023-04-01T02:03:28;8.60;99.90
13344;DHT22;6741;48.964;9.406;2023-04-01T02:05:57;8.60;99.90
13344;DHT22;6741;48.964;9.406;2023-04-01T02:08:30;8.60;99.90
13344;DHT22;6741;48.964;9.406;2023-04-01T02:11:01;8.60;99.90
13344;DHT22;6741;48.964;9.406;2023-04-01T02:13:34;8.60;99.90
13344;DHT22;6741;48.964;9.406;2023-04-01T02:16:06;8.60;99.90
13344;DHT22;6741;48.964;9.406;2023-04-01T02:18:36;8.50;99.90
13344;DHT22;6741;48.964;9.406;2023-04-01T02:21:05;8.60;99.90
13344;DHT22;6741;48.964;9.406;2023-04-01T02:23:35;8.50;99.90
13344;DHT22;6741;48.964;9.406;2023-04-01T02:26:04;8.50;99.90
13344;DHT22;6741;48.964;9.406;2023-04-01T02:28:33;8.40;99.90
13344;DHT22;6741;48.964;9.406;2023-04-01T02:31:01;8.40;99.90
13344;DHT22;6741;48.964;9.406;2023-04-01T02:33:30;8.30;99.90
13344;DHT22;6741;48.964;9.406;2023-04-01T02:35:57;8.30;99.90
13344;DHT22;6741;48.964;9.406;2023-04-01T02:38:25;8.20;99.90
13344;DHT22;6741;48.964;9.406;2023-04-01T02:40:58;8.20;99.90
13344;DHT22;6741;48.964;9.406;2023-04-01T02:43:26;8.20;99.90
13344;DHT22;6741;48.964;9.406;2023-04-01T02:45:53;8.20;99.90
13344;DHT22;6741;48.964;9.406;2023-04-01T02:48:20;8.20;99.90
13344;DHT22;6741;48.964;9.406;2023-04-01T02:50:47;8.20;99.90
13344;DHT22;6741;48.964;9.406;2023-04-01T02:53:14;8.20;99.90
13344;DHT22;6741;48.964;9.406;2023-04-01T02:55:41;8.20;99.90
13344;DHT22;6741;48.964;9.406;2023-04-01T02:58:09;8.30;99.90
13344;DHT22;6741;48.964;9.406;2023-04-01T03:00:36;8.20;99.90
13344;DHT22;6741;48.964;9.406;2023-04-01T03:03:03;8.20;99.90
13344;DHT22;6741;48.964;9.406;2023-04-01T03:05:30;8.20;99.90
13344;DHT22;6741;48.964;9.406;2023-04-01T03:07:57;8.20;99.90
13344;DHT22;6741;48.964;9.406;2023-04-01T03:10:24;8.20;99.90
13344;DHT22;6741;48.964;9.406;2023-04-01T03:12:51;8.20;99.90
13344;DHT22;6741;48.964;9.406;2023-04-01T03:15:19;8.20;99.90
13344;DHT22;6741;48.964;9.406;2023-04-01T03:17:46;8.20;99.90
13344;DHT22;6741;48.964;9.406;2023-04-01T03:20:13;8.20;99.90
13344;DHT22;6741;48.964;9.406;2023-04-01T03:22:40;8.10;99.90
13344;DHT22;6741;48.964;9.406;2023-04-01T03:25:08;8.20;99.90
13344;DHT22;6741;48.964;9.406;2023-04-01T03:27:36;8.20;99.90
13344;DHT22;6741;48.964;9.406;2023-04-01T03:30:04;8.10;99.90
13344;DHT22;6741;48.964;9.406;2023-04-01T03:32:33;8.20;99.90
13344;DHT22;6741;48.964;9.406;2023-04-01T03:35:00;8.20;99.90
13344;DHT22;6741;48.964;9.406;2023-04-01T03:37:27;8.10;99.90
13344;DHT22;6741;48.964;9.406;2023-04-01T03:39:54;8.10;99.90
13344;DHT22;6741;48.964;9.406;2023-04-01T03:42:20;8.10;99.90
13344;DHT22;6741;48.964;9.406;2023-04-01T03:44:47;8.10;99.90
13344;DHT22;6741;48.964;9.406;2023-04-01T03:47:14;8.10;99.90
13344;DHT22;6741;48.964;9.406;2023-04-01T03:49:43;8.10;99.90
13344;DHT22;6741;48.964;9.406;2023-04-01T03:52:10;8.10;99.90
13344;DHT22;6741;48.964;9.406;2023-04-01T03:54:37;8.00;99.90
13344;DHT22;6741;48.964;9.406;2023-04-01T03:57:04;8.00;99.90
13344;DHT22;6741;48.964;9.406;2023-04-01T03:59:31;7.90;99.90
13344;DHT22;6741;48.964;9.406;2023-04-01T04:01:58;7.80;99.90
13344;DHT22;6741;48.964;9.406;2023-04-01T04:04:25;7.80;99.90
13344;DHT22;6741;48.964;9.406;2023-04-01T04:06:54;7.80;99.90
13344;DHT22;6741;48.964;9.406;2023-04-01T04:09:20;7.80;99.90
13344;DHT22;6741;48.964;9.406;2023-04-01T04:11:47;7.70;99.90
13344;DHT22;6741;48.964;9.406;2023-04-01T04:14:15;7.70;99.90
13344;DHT22;6741;48.964;9.406;2023-04-01T04:16:42;7.70;99.90
13344;DHT22;6741;48.964;9.406;2023-04-01T04:19:09;7.80;99.90
13344;DHT22;6741;48.964;9.406;2023-04-01T04:21:37;7.80;99.90
13344;DHT22;6741;48.964;9.406;2023-04-01T04:24:05;7.80;99.90
13344;DHT22;6741;48.964;9.406;2023-04-01T04:26:32;7.80;99.90
13344;DHT22;6741;48.964;9.406;2023-04-01T04:29:00;7.80;99.90
13344;DHT22;6741;48.964;9.406;2023-04-01T04:31:27;7.90;99.90
13344;DHT22;6741;48.964;9.406;2023-04-01T04:33:54;7.90;99.90
13344;DHT22;6741;48.964;9.406;2023-04-01T04:36:21;7.80;99.90
13344;DHT22;6741;48.964;9.406;2023-04-01T04:38:48;7.90;99.90
13344;DHT22;6741;48.964;9.406;2023-04-01T04:41:18;7.90;99.90
13344;DHT22;6741;48.964;9.406;2023-04-01T04:43:50;7.80;99.90
13344;DHT22;6741;48.964;9.406;2023-04-01T04:46:18;7.90;99.90
13344;DHT22;6741;48.964;9.406;2023-04-01T04:48:45;7.80;99.90
13344;DHT22;6741;48.964;9.406;2023-04-01T04:51:16;7.90;99.90
13344;DHT22;6741;48.964;9.406;2023-04-01T04:53:43;7.90;99.90
13344;DHT22;6741;48.964;9.406;2023-04-01T04:56:11;7.90;99.90
13344;DHT22;6741;48.964;9.406;2023-04-01T04:58:40;7.90;99.90
13344;DHT22;6741;48.964;9.406;2023-04-01T05:01:08;7.90;99.90
13344;DHT22;6741;48.964;9.406;2023-04-01T05:03:36;7.90;99.90
13344;DHT22;6741;48.964;9.406;2023-04-01T05:06:04;7.80;99.90
13344;DHT22;6741;48.964;9.406;2023-04-01T05:08:31;7.80;99.90
13344;DHT22;6741;48.964;9.406;2023-04-01T05:10:59;7.80;99.90
13344;DHT22;6741;48.964;9.406;2023-04-01T05:13:27;7.90;99.90
13344;DHT22;6741;48.964;9.406;2023-04-01T05:15:55;7.90;99.90
13344;DHT22;6741;48.964;9.406;2023-04-01T05:18:22;7.80;99.90
13344;DHT22;6741;48.964;9.406;2023-04-01T05:20:50;7.80;99.90
13344;DHT22;6741;48.964;9.406;2023-04-01T05:23:19;7.70;99.90
13344;DHT22;6741;48.964;9.406;2023-04-01T05:25:46;7.70;99.90
13344;DHT22;6741;48.964;9.406;2023-04-01T05:28:13;7.70;99.90
13344;DHT22;6741;48.964;9.406;2023-04-01T05:30:41;7.70;99.90
13344;DHT22;6741;48.964;9.406;2023-04-01T05:33:10;7.70;99.90
13344;DHT22;6741;48.964;9.406;2023-04-01T05:35:38;7.70;99.90
13344;DHT22;6741;48.964;9.406;2023-04-01T05:38:05;7.70;99.90
13344;DHT22;6741;48.964;9.406;2023-04-01T05:40:32;7.70;99.90
13344;DHT22;6741;48.964;9.406;2023-04-01T05:42:59;7.80;99.90
13344;DHT22;6741;48.964;9.406;2023-04-01T05:45:27;7.80;99.90
13344;DHT22;6741;48.964;9.406;2023-04-01T05:47:54;7.80;99.90
13344;DHT22;6741;48.964;9.406;2023-04-01T05:50:22;7.80;99.90
13344;DHT22;6741;48.964;9.406;2023-04-01T05:52:49;7.80;99.90
13344;DHT22;6741;48.964;9.406;2023-04-01T05:55:16;7.90;99.90
13344;DHT22;6741;48.964;9.406;2023-04-01T05:57:44;7.90;99.90
13344;DHT22;6741;48.964;9.406;2023-04-01T06:00:12;8.00;99.90
13344;DHT22;6741;48.964;9.406;2023-04-01T06:02:40;8.00;99.90
13344;DHT22;6741;48.964;9.406;2023-04-01T06:05:14;8.00;99.90
13344;DHT22;6741;48.964;9.406;2023-04-01T06:07:43;8.00;99.90
13344;DHT22;6741;48.964;9.406;2023-04-01T06:10:13;8.00;99.90
13344;DHT22;6741;48.964;9.406;2023-04-01T06:12:48;8.10;99.90
13344;DHT22;6741;48.964;9.406;2023-04-01T06:15:25;8.10;99.90
13344;DHT22;6741;48.964;9.406;2023-04-01T06:18:10;8.10;99.90
13344;DHT22;6741;48.964;9.406;2023-04-01T06:20:46;8.20;99.90
13344;DHT22;6741;48.964;9.406;2023-04-01T06:23:34;8.20;99.90
13344;DHT22;6741;48.964;9.406;2023-04-01T06:26:08;8.30;99.90
13344;DHT22;6741;48.964;9.406;2023-04-01T06:28:53;8.40;99.90
13344;DHT22;6741;48.964;9.406;2023-04-01T06:31:42;8.40;99.90
13344;DHT22;6741;48.964;9.406;2023-04-01T06:34:35;8.50;99.90
13344;DHT22;6741;48.964;9.406;2023-04-01T06:37:33;8.50;99.90
13344;DHT22;6741;48.964;9.406;2023-04-01T06:40:22;8.60;99.90
13344;DHT22;6741;48.964;9.406;2023-04-01T06:43:09;8.60;99.90
13344;DHT22;6741;48.964;9.406;2023-04-01T06:45:49;8.70;99.90
13344;DHT22;6741;48.964;9.406;2023-04-01T06:48:36;8.70;99.90
13344;DHT22;6741;48.964;9.406;2023-04-01T06:51:11;8.80;99.90
13344;DHT22;6741;48.964;9.406;2023-04-01T06:53:49;8.80;99.90
13344;DHT22;6741;48.964;9.406;2023-04-01T06:56:30;8.80;99.90
13344;DHT22;6741;48.964;9.406;2023-04-01T06:59:02;8.80;99.90
13344;DHT22;6741;48.964;9.406;2023-04-01T07:01:35;8.90;99.90
13344;DHT22;6741;48.964;9.406;2023-04-01T07:04:09;8.90;99.90
13344;DHT22;6741;48.964;9.406;2023-04-01T07:06:42;8.90;99.90
13344;DHT22;6741;48.964;9.406;2023-04-01T07:09:16;8.90;99.90
13344;DHT22;6741;48.964;9.406;2023-04-01T07:11:47;9.00;99.90
13344;DHT22;6741;48.964;9.406;2023-04-01T07:14:19;9.00;99.90
13344;DHT22;6741;48.964;9.406;2023-04-01T07:16:52;9.00;99.90
13344;DHT22;6741;48.964;9.406;2023-04-01T07:19:26;9.00;99.90
13344;DHT22;6741;48.964;9.406;2023-04-01T07:22:00;9.00;99.90
13344;DHT22;6741;48.964;9.406;2023-04-01T07:24:32;9.00;99.90
13344;DHT22;6741;48.964;9.406;2023-04-01T07:27:01;9.10;99.90
13344;DHT22;6741;48.964;9.406;2023-04-01T07:29:28;9.10;99.90
13344;DHT22;6741;48.964;9.406;2023-04-01T07:32:17;9.20;99.90
13344;DHT22;6741;48.964;9.406;2023-04-01T07:34:53;9.20;99.90
13344;DHT22;6741;48.964;9.406;2023-04-01T07:37:29;9.10;99.90
13344;DHT22;6741;48.964;9.406;2023-04-01T07:40:07;9.20;99.90
13344;DHT22;6741;48.964;9.406;2023-04-01T07:42:51;9.20;99.90
13344;DHT22;6741;48.964;9.406;2023-04-01T07:45:24;9.10;99.90
13344;DHT22;6741;48.964;9.406;2023-04-01T07:48:10;9.20;99.90
13344;DHT22;6741;48.964;9.406;2023-04-01T07:50:41;9.20;99.90
13344;DHT22;6741;48.964;9.406;2023-04-01T07:53:15;9.20;99.90
13344;DHT22;6741;48.964;9.406;2023-04-01T07:55:48;9.20;99.90
13344;DHT22;6741;48.964;9.406;2023-04-01T07:58:23;9.20;99.90
13344;DHT22;6741;48.964;9.406;2023-04-01T08:00:58;9.20;99.90
13344;DHT22;6741;48.964;9.406;2023-04-01T08:03:33;9.20;99.90
13344;DHT22;6741;48.964;9.406;2023-04-01T08:06:08;9.20;99.90
13344;DHT22;6741;48.964;9.406;2023-04-01T08:08:48;9.20;99.90
13344;DHT22;6741;48.964;9.406;2023-04-01T08:11:27;9.20;99.90
13344;DHT22;6741;48.964;9.406;2023-04-01T08:14:04;9.20;99.90
13344;DHT22;6741;48.964;9.406;2023-04-01T08:16:41;9.30;99.90
13344;DHT22;6741;48.964;9.406;2023-04-01T08:19:15;9.20;99.90
13344;DHT22;6741;48.964;9.406;2023-04-01T08:21:49;9.20;99.90
13344;DHT22;6741;48.964;9.406;2023-04-01T08:24:23;9.20;99.90
13344;DHT22;6741;48.964;9.406;2023-04-01T08:26:55;9.20;99.90
13344;DHT22;6741;48.964;9.406;2023-04-01T08:29:32;9.20;99.90
13344;DHT22;6741;48.964;9.406;2023-04-01T08:32:07;9.30;99.90
13344;DHT22;6741;48.964;9.406;2023-04-01T08:34:37;9.30;99.90
13344;DHT22;6741;48.964;9.406;2023-04-01T08:37:10;9.40;99.90
13344;DHT22;6741;48.964;9.406;2023-04-01T08:39:40;9.30;99.90
13344;DHT22;6741;48.964;9.406;2023-04-01T08:42:31;9.30;99.90
13344;DHT22;6741;48.964;9.406;2023-04-01T08:45:18;9.30;99.90
13344;DHT22;6741;48.964;9.406;2023-04-01T08:51:08;9.30;99.90
13344;DHT22;6741;48.964;9.406;2023-04-01T08:53:58;9.20;99.90
13344;DHT22;6741;48.964;9.406;2023-04-01T08:56:34;9.10;99.90
13344;DHT22;6741;48.964;9.406;2023-04-01T08:59:22;8.90;99.90
13344;DHT22;6741;48.964;9.406;2023-04-01T09:02:19;8.70;99.90
13344;DHT22;6741;48.964;9.406;2023-04-01T09:05:17;8.70;99.90
13344;DHT22;6741;48.964;9.406;2023-04-01T09:07:55;8.60;99.90
13344;DHT22;6741;48.964;9.406;2023-04-01T09:10:48;8.60;99.90
13344;DHT22;6741;48.964;9.406;2023-04-01T09:13:34;8.50;99.90
13344;DHT22;6741;48.964;9.406;2023-04-01T09:16:29;8.50;99.90
13344;DHT22;6741;48.964;9.406;2023-04-01T09:19:24;8.40;99.90
13344;DHT22;6741;48.964;9.406;2023-04-01T09:22:13;8.50;99.90
13344;DHT22;6741;48.964;9.406;2023-04-01T09:25:16;8.40;99.90
13344;DHT22;6741;48.964;9.406;2023-04-01T09:27:56;8.40;99.90
13344;DHT22;6741;48.964;9.406;2023-04-01T09:30:53;8.40;99.90
13344;DHT22;6741;48.964;9.406;2023-04-01T09:36:43;8.50;99.90
13344;DHT22;6741;48.964;9.406;2023-04-01T09:39:26;8.50;99.90
13344;DHT22;6741;48.964;9.406;2023-04-01T09:45:08;8.60;99.90
13344;DHT22;6741;48.964;9.406;2023-04-01T09:47:50;8.70;99.90
13344;DHT22;6741;48.964;9.406;2023-04-01T09:50:34;8.70;99.90
13344;DHT22;6741;48.964;9.406;2023-04-01T09:53:40;8.70;99.90
13344;DHT22;6741;48.964;9.406;2023-04-01T09:56:42;8.60;99.90
13344;DHT22;6741;48.964;9.406;2023-04-01T10:02:58;8.70;99.90
13344;DHT22;6741;48.964;9.406;2023-04-01T10:18:16;8.80;99.90
13344;DHT22;6741;48.964;9.406;2023-04-01T10:20:56;8.70;99.90
13344;DHT22;6741;48.964;9.406;2023-04-01T10:23:39;8.70;99.90
13344;DHT22;6741;48.964;9.406;2023-04-01T10:26:32;8.80;99.90
13344;DHT22;6741;48.964;9.406;2023-04-01T10:35:43;8.70;99.90
13344;DHT22;6741;48.964;9.406;2023-04-01T10:45:17;8.80;99.90
13344;DHT22;6741;48.964;9.406;2023-04-01T10:51:10;8.70;99.90
13344;DHT22;6741;48.964;9.406;2023-04-01T10:53:46;8.70;99.90
13344;DHT22;6741;48.964;9.406;2023-04-01T10:56:33;8.70;99.90
13344;DHT22;6741;48.964;9.406;2023-04-01T10:59:21;8.70;99.90
13344;DHT22;6741;48.964;9.406;2023-04-01T11:17:46;8.70;99.90
13344;DHT22;6741;48.964;9.406;2023-04-01T11:20:42;8.70;99.90
13344;DHT22;6741;48.964;9.406;2023-04-01T11:23:24;8.80;99.90
13344;DHT22;6741;48.964;9.406;2023-04-01T11:26:06;8.80;99.90
13344;DHT22;6741;48.964;9.406;2023-04-01T11:28:55;8.80;99.90
13344;DHT22;6741;48.964;9.406;2023-04-01T11:31:43;8.80;99.90
13344;DHT22;6741;48.964;9.406;2023-04-01T11:34:32;8.80;99.90
13344;DHT22;6741;48.964;9.406;2023-04-01T11:37:14;8.80;99.90
13344;DHT22;6741;48.964;9.406;2023-04-01T11:39:49;8.80;99.90
13344;DHT22;6741;48.964;9.406;2023-04-01T11:42:26;8.90;99.90
13344;DHT22;6741;48.964;9.406;2023-04-01T11:45:01;8.90;99.90
13344;DHT22;6741;48.964;9.406;2023-04-01T11:47:48;8.90;99.90
13344;DHT22;6741;48.964;9.406;2023-04-01T11:50:28;8.90;99.90
13344;DHT22;6741;48.964;9.406;2023-04-01T11:53:26;9.00;99.90
13344;DHT22;6741;48.964;9.406;2023-04-01T11:56:02;9.00;99.90
13344;DHT22;6741;48.964;9.406;2023-04-01T11:58:52;9.00;99.90
13344;DHT22;6741;48.964;9.406;2023-04-01T12:01:40;9.00;99.90
13344;DHT22;6741;48.964;9.406;2023-04-01T12:04:49;9.00;99.90
13344;DHT22;6741;48.964;9.406;2023-04-01T12:07:34;9.10;99.90
13344;DHT22;6741;48.964;9.406;2023-04-01T12:10:14;9.20;99.90
13344;DHT22;6741;48.964;9.406;2023-04-01T12:12:47;9.10;99.90
13344;DHT22;6741;48.964;9.406;2023-04-01T12:15:21;9.10;99.90
13344;DHT22;6741;48.964;9.406;2023-04-01T12:17:55;9.10;99.90
13344;DHT22;6741;48.964;9.406;2023-04-01T12:20:41;9.10;99.90
13344;DHT22;6741;48.964;9.406;2023-04-01T12:29:38;9.10;99.90
13344;DHT22;6741;48.964;9.406;2023-04-01T12:32:20;9.20;99.90
13344;DHT22;6741;48.964;9.406;2023-04-01T12:35:01;9.20;99.90
13344;DHT22;6741;48.964;9.406;2023-04-01T12:37:36;9.20;99.90
13344;DHT22;6741;48.964;9.406;2023-04-01T12:40:28;9.20;99.90
13344;DHT22;6741;48.964;9.406;2023-04-01T12:43:26;9.20;99.90
13344;DHT22;6741;48.964;9.406;2023-04-01T12:46:03;9.20;99.90
13344;DHT22;6741;48.964;9.406;2023-04-01T12:48:52;9.20;99.90
13344;DHT22;6741;48.964;9.406;2023-04-01T12:51:50;9.20;99.90
13344;DHT22;6741;48.964;9.406;2023-04-01T12:54:49;9.20;99.90
13344;DHT22;6741;48.964;9.406;2023-04-01T12:57:46;9.10;99.90
13344;DHT22;6741;48.964;9.406;2023-04-01T13:00:35;9.20;99.90
13344;DHT22;6741;48.964;9.406;2023-04-01T13:03:20;9.20;99.90
13344;DHT22;6741;48.964;9.406;2023-04-01T13:08:55;9.20;99.90
13344;DHT22;6741;48.964;9.406;2023-04-01T13:11:36;9.20;99.90
13344;DHT22;6741;48.964;9.406;2023-04-01T13:17:13;9.30;99.90
13344;DHT22;6741;48.964;9.406;2023-04-01T13:19:50;9.30;99.90
13344;DHT22;6741;48.964;9.406;2023-04-01T13:22:23;9.30;99.90
13344;DHT22;6741;48.964;9.406;2023-04-01T13:24:59;9.20;99.90
13344;DHT22;6741;48.964;9.406;2023-04-01T13:27:33;9.10;99.90
13344;DHT22;6741;48.964;9.406;2023-04-01T13:30:21;9.00;99.90
13344;DHT22;6741;48.964;9.406;2023-04-01T13:32:56;9.00;99.90
13344;DHT22;6741;48.964;9.406;2023-04-01T13:35:39;9.00;99.90
13344;DHT22;6741;48.964;9.406;2023-04-01T13:41:18;8.90;99.90
13344;DHT22;6741;48.964;9.406;2023-04-01T13:43:51;8.90;99.90
13344;DHT22;6741;48.964;9.406;2023-04-01T13:46:41;8.90;99.90
13344;DHT22;6741;48.964;9.406;2023-04-01T13:52:16;8.90;99.90
13344;DHT22;6741;48.964;9.406;2023-04-01T13:55:11;8.80;99.90
13344;DHT22;6741;48.964;9.406;2023-04-01T13:57:55;8.80;99.90
13344;DHT22;6741;48.964;9.406;2023-04-01T14:00:48;8.70;99.90
13344;DHT22;6741;48.964;9.406;2023-04-01T14:03:40;8.70;99.90
13344;DHT22;6741;48.964;9.406;2023-04-01T14:06:16;8.80;99.90
13344;DHT22;6741;48.964;9.406;2023-04-01T14:08:58;8.80;99.90
13344;DHT22;6741;48.964;9.406;2023-04-01T14:11:35;8.80;99.90
13344;DHT22;6741;48.964;9.406;2023-04-01T14:14:11;8.80;99.90
13344;DHT22;6741;48.964;9.406;2023-04-01T14:17:07;8.80;99.90
13344;DHT22;6741;48.964;9.406;2023-04-01T14:20:04;8.80;99.90
13344;DHT22;6741;48.964;9.406;2023-04-01T14:22:44;8.80;99.90
13344;DHT22;6741;48.964;9.406;2023-04-01T14:25:29;8.80;99.90
13344;DHT22;6741;48.964;9.406;2023-04-01T14:28:07;8.80;99.90
13344;DHT22;6741;48.964;9.406;2023-04-01T14:30:41;8.80;99.90
13344;DHT22;6741;48.964;9.406;2023-04-01T14:33:22;8.80;99.90
13344;DHT22;6741;48.964;9.406;2023-04-01T14:36:04;8.80;99.90
13344;DHT22;6741;48.964;9.406;2023-04-01T14:38:42;8.90;99.90
13344;DHT22;6741;48.964;9.406;2023-04-01T14:41:20;8.80;99.90
13344;DHT22;6741;48.964;9.406;2023-04-01T14:44:05;8.80;99.90
13344;DHT22;6741;48.964;9.406;2023-04-01T14:47:16;8.80;99.90
13344;DHT22;6741;48.964;9.406;2023-04-01T14:49:49;8.80;99.90
13344;DHT22;6741;48.964;9.406;2023-04-01T14:52:24;8.80;99.90
13344;DHT22;6741;48.964;9.406;2023-04-01T14:54:54;8.80;99.90
13344;DHT22;6741;48.964;9.406;2023-04-01T14:57:25;8.80;99.90
13344;DHT22;6741;48.964;9.406;2023-04-01T14:59:58;8.80;99.90
13344;DHT22;6741;48.964;9.406;2023-04-01T15:05:31;8.80;99.90
13344;DHT22;6741;48.964;9.406;2023-04-01T15:08:17;8.80;99.90
13344;DHT22;6741;48.964;9.406;2023-04-01T15:14:13;8.80;99.90
13344;DHT22;6741;48.964;9.406;2023-04-01T15:16:51;8.90;99.90
13344;DHT22;6741;48.964;9.406;2023-04-01T15:19:30;9.00;99.90
13344;DHT22;6741;48.964;9.406;2023-04-01T15:22:27;9.00;99.90
13344;DHT22;6741;48.964;9.406;2023-04-01T15:25:06;9.00;99.90
13344;DHT22;6741;48.964;9.406;2023-04-01T15:27:41;9.00;99.90
13344;DHT22;6741;48.964;9.406;2023-04-01T15:30:27;9.00;99.90
13344;DHT22;6741;48.964;9.406;2023-04-01T15:33:13;9.10;99.90
13344;DHT22;6741;48.964;9.406;2023-04-01T15:35:48;9.00;99.90
13344;DHT22;6741;48.964;9.406;2023-04-01T15:38:24;9.10;99.90
13344;DHT22;6741;48.964;9.406;2023-04-01T15:41:01;9.10;99.90
13344;DHT22;6741;48.964;9.406;2023-04-01T15:43:40;9.10;99.90
13344;DHT22;6741;48.964;9.406;2023-04-01T15:46:27;9.10;99.90
13344;DHT22;6741;48.964;9.406;2023-04-01T15:49:12;9.20;99.90
13344;DHT22;6741;48.964;9.406;2023-04-01T15:52:02;9.20;99.90
13344;DHT22;6741;48.964;9.406;2023-04-01T15:57:36;9.20;99.90
13344;DHT22;6741;48.964;9.406;2023-04-01T16:00:17;9.20;99.90
13344;DHT22;6741;48.964;9.406;2023-04-01T16:02:51;9.20;99.90
13344;DHT22;6741;48.964;9.406;2023-04-01T16:05:27;9.20;99.90
13344;DHT22;6741;48.964;9.406;2023-04-01T16:08:13;9.20;99.90
13344;DHT22;6741;48.964;9.406;2023-04-01T16:10:56;9.40;99.90
13344;DHT22;6741;48.964;9.406;2023-04-01T16:13:35;9.40;99.90
13344;DHT22;6741;48.964;9.406;2023-04-01T16:16:18;9.30;99.90
13344;DHT22;6741;48.964;9.406;2023-04-01T16:21:48;9.30;99.90
13344;DHT22;6741;48.964;9.406;2023-04-01T16:24:24;9.30;99.90
13344;DHT22;6741;48.964;9.406;2023-04-01T16:27:04;9.40;99.90
13344;DHT22;6741;48.964;9.406;2023-04-01T16:29:40;9.40;99.90
13344;DHT22;6741;48.964;9.406;2023-04-01T16:32:20;9.30;99.90
13344;DHT22;6741;48.964;9.406;2023-04-01T16:34:56;9.40;99.90
13344;DHT22;6741;48.964;9.406;2023-04-01T16:37:33;9.40;99.90
13344;DHT22;6741;48.964;9.406;2023-04-01T16:40:13;9.40;99.90
13344;DHT22;6741;48.964;9.406;2023-04-01T16:42:48;9.40;99.90
13344;DHT22;6741;48.964;9.406;2023-04-01T16:45:30;9.40;99.90
13344;DHT22;6741;48.964;9.406;2023-04-01T16:48:07;9.40;99.90
13344;DHT22;6741;48.964;9.406;2023-04-01T16:50:44;9.40;99.90
13344;DHT22;6741;48.964;9.406;2023-04-01T16:53:19;9.40;99.90
13344;DHT22;6741;48.964;9.406;2023-04-01T16:55:52;9.30;99.90
13344;DHT22;6741;48.964;9.406;2023-04-01T16:58:26;9.30;99.90
13344;DHT22;6741;48.964;9.406;2023-04-01T17:01:01;9.30;99.90
13344;DHT22;6741;48.964;9.406;2023-04-01T17:03:34;9.40;99.90
13344;DHT22;6741;48.964;9.406;2023-04-01T17:06:27;9.40;99.90
13344;DHT22;6741;48.964;9.406;2023-04-01T17:09:07;9.40;99.90
13344;DHT22;6741;48.964;9.406;2023-04-01T17:11:39;9.30;99.90
13344;DHT22;6741;48.964;9.406;2023-04-01T17:14:15;9.30;99.90
13344;DHT22;6741;48.964;9.406;2023-04-01T17:16:59;9.30;99.90
13344;DHT22;6741;48.964;9.406;2023-04-01T17:22:32;9.40;99.90
13344;DHT22;6741;48.964;9.406;2023-04-01T17:25:16;9.40;99.90
13344;DHT22;6741;48.964;9.406;2023-04-01T17:27:51;9.40;99.90
13344;DHT22;6741;48.964;9.406;2023-04-01T17:30:25;9.30;99.90
13344;DHT22;6741;48.964;9.406;2023-04-01T17:33:25;9.30;99.90
13344;DHT22;6741;48.964;9.406;2023-04-01T17:35:58;9.30;99.90
13344;DHT22;6741;48.964;9.406;2023-04-01T17:38:54;9.30;99.90
13344;DHT22;6741;48.964;9.406;2023-04-01T17:41:36;9.20;99.90
13344;DHT22;6741;48.964;9.406;2023-04-01T17:44:17;9.20;99.90
13344;DHT22;6741;48.964;9.406;2023-04-01T17:47:03;9.20;99.90
13344;DHT22;6741;48.964;9.406;2023-04-01T17:49:38;9.20;99.90
13344;DHT22;6741;48.964;9.406;2023-04-01T17:52:14;9.20;99.90
13344;DHT22;6741;48.964;9.406;2023-04-01T17:54:50;9.10;99.90
13344;DHT22;6741;48.964;9.406;2023-04-01T17:57:38;9.10;99.90
13344;DHT22;6741;48.964;9.406;2023-04-01T18:00:19;9.00;99.90
13344;DHT22;6741;48.964;9.406;2023-04-01T18:02:57;9.00;99.90
13344;DHT22;6741;48.964;9.406;2023-04-01T18:05:51;9.00;99.90
13344;DHT22;6741;48.964;9.406;2023-04-01T18:08:32;9.10;99.90
13344;DHT22;6741;48.964;9.406;2023-04-01T18:11:11;9.20;99.90
13344;DHT22;6741;48.964;9.406;2023-04-01T18:16:53;9.20;99.90
13344;DHT22;6741;48.964;9.406;2023-04-01T18:19:31;9.20;99.90
13344;DHT22;6741;48.964;9.406;2023-04-01T18:22:09;9.20;99.90
13344;DHT22;6741;48.964;9.406;2023-04-01T18:24:42;9.20;99.90
13344;DHT22;6741;48.964;9.406;2023-04-01T18:30:13;9.10;99.90
13344;DHT22;6741;48.964;9.406;2023-04-01T18:32:46;9.10;99.90
13344;DHT22;6741;48.964;9.406;2023-04-01T18:35:21;9.10;99.90
13344;DHT22;6741;48.964;9.406;2023-04-01T18:37:56;9.10;99.90
13344;DHT22;6741;48.964;9.406;2023-04-01T18:40:29;9.00;99.90